Time;durP1;ratioP1;P1;durP2;ratioP2;P2;SDS_P1;SDS_P2;PMS_P1;PMS_P2;Temp;Humidity;BMP_temperature;BMP_pressure;BME280_temperature;BME280_humidity;BME280_pressure;Samples;Min_cycle;Max_cycle;Signal;HPM_P1;HPM_P2
2022/05/14 00:00:12;;;;;;;14.47;11.07;;;13.90;99.90;;;;;;5080251;28;20180;-83
2022/05/14 00:02:37;;;;;;;15.57;12.00;;;14.00;99.90;;;;;;5079559;28;20177;-83
2022/05/14 00:05:05;;;;;;;17.73;11.67;;;14.00;99.90;;;;;;5080403;28;20219;-83
2022/05/14 00:07:30;;;;;;;15.53;11.83;;;14.00;99.90;;;;;;5062491;28;20195;-83
2022/05/14 00:09:56;;;;;;;17.63;11.37;;;14.00;99.90;;;;;;5081477;28;20180;-83
2022/05/14 00:15:07;;;;;;;14.87;11.63;;;14.00;99.90;;;;;;5080508;28;20231;-83
2022/05/14 00:17:32;;;;;;;16.70;11.40;;;14.00;99.90;;;;;;5062291;28;20177;-83
2022/05/14 00:19:58;;;;;;;15.50;11.93;;;14.00;99.90;;;;;;5062066;28;20180;-83
2022/05/14 00:22:23;;;;;;;14.57;11.53;;;14.00;99.90;;;;;;5062424;28;20188;-83
2022/05/14 00:24:49;;;;;;;14.70;11.23;;;13.90;99.90;;;;;;5061655;28;20203;-83
2022/05/14 00:27:16;;;;;;;19.33;11.53;;;;;;;;;;5080590;28;20227;-83
2022/05/14 00:29:41;;;;;;;13.07;11.27;;;13.80;99.90;;;;;;5062088;28;20211;-83
2022/05/14 00:32:07;;;;;;;15.30;11.57;;;13.70;99.90;;;;;;5079770;28;20540;-83
2022/05/14 00:34:33;;;;;;;15.57;11.93;;;13.70;99.90;;;;;;5063327;28;20201;-83
2022/05/14 00:37:00;;;;;;;16.70;11.87;;;13.70;99.90;;;;;;5083129;28;20177;-83
2022/05/14 00:39:26;;;;;;;14.00;11.07;;;13.70;99.90;;;;;;5083235;28;20172;-83
2022/05/14 00:41:52;;;;;;;13.57;11.60;;;13.80;99.90;;;;;;5083810;28;20176;-83
2022/05/14 00:44:18;;;;;;;15.70;12.07;;;13.80;99.90;;;;;;5065566;28;20301;-83
2022/05/14 00:46:46;;;;;;;15.33;12.50;;;13.80;99.90;;;;;;5065205;28;20185;-83
2022/05/14 00:49:13;;;;;;;18.23;12.60;;;13.80;99.90;;;;;;5064941;28;20169;-83
2022/05/14 00:51:41;;;;;;;16.00;12.03;;;13.80;99.90;;;;;;5064895;28;20192;-83
2022/05/14 00:54:15;;;;;;;14.90;12.17;;;13.90;99.90;;;;;;5064379;28;20200;-83
2022/05/14 00:56:46;;;;;;;14.63;11.83;;;13.90;99.90;;;;;;5085434;28;20263;-83
2022/05/14 00:59:18;;;;;;;14.47;12.60;;;13.80;99.90;;;;;;5077750;28;20153;-82
2022/05/14 01:01:45;;;;;;;15.47;13.17;;;13.80;99.90;;;;;;5061125;28;20221;-83
2022/05/14 01:04:11;;;;;;;19.60;12.87;;;13.80;99.90;;;;;;5083546;28;20200;-83
2022/05/14 01:06:40;;;;;;;15.37;12.37;;;13.80;99.90;;;;;;5083256;28;20197;-83
2022/05/14 01:09:06;;;;;;;17.13;13.03;;;13.80;99.90;;;;;;5065508;28;20250;-83
2022/05/14 01:11:35;;;;;;;16.03;13.57;;;13.70;99.90;;;;;;5065048;28;20181;-83
2022/05/14 01:14:01;;;;;;;16.87;12.87;;;13.70;99.90;;;;;;5083572;28;20708;-83
2022/05/14 01:16:27;;;;;;;18.07;13.43;;;13.60;99.90;;;;;;5083164;28;20169;-83
2022/05/14 01:18:52;;;;;;;18.53;13.47;;;13.60;99.90;;;;;;5064924;28;20181;-83
2022/05/14 01:21:24;;;;;;;18.27;13.37;;;13.50;99.90;;;;;;5083011;28;20202;-83
2022/05/14 01:27:05;;;;;;;18.83;13.50;;;13.40;99.90;;;;;;5083002;28;20188;-83
2022/05/14 01:29:31;;;;;;;15.57;12.47;;;13.30;99.90;;;;;;5064880;28;20173;-83
2022/05/14 01:31:57;;;;;;;17.27;13.73;;;13.30;99.90;;;;;;5064633;28;20184;-83
2022/05/14 01:34:28;;;;;;;15.90;13.73;;;13.20;99.90;;;;;;5064679;28;20224;-83
2022/05/14 01:36:55;;;;;;;19.70;13.10;;;13.20;99.90;;;;;;5064983;28;20203;-83
2022/05/14 01:39:21;;;;;;;19.03;15.00;;;13.10;99.90;;;;;;5064999;28;20177;-83
2022/05/14 01:41:46;;;;;;;20.47;14.83;;;13.10;99.90;;;;;;5064389;28;20173;-83
2022/05/14 01:44:12;;;;;;;21.90;15.73;;;13.10;99.90;;;;;;5065017;28;20201;-83
2022/05/14 01:46:38;;;;;;;22.33;15.63;;;;;;;;;;5064317;28;20177;-83
2022/05/14 01:49:04;;;;;;;22.50;16.40;;;13.00;99.90;;;;;;5064796;28;20181;-83
2022/05/14 01:51:30;;;;;;;21.87;15.37;;;;;;;;;;5082079;28;20180;-83
2022/05/14 01:53:56;;;;;;;19.80;14.83;;;13.00;99.90;;;;;;5082729;28;20201;-83
2022/05/14 01:56:22;;;;;;;19.07;15.13;;;13.00;99.90;;;;;;5064512;28;20179;-83
2022/05/14 01:58:48;;;;;;;19.87;15.53;;;13.00;99.90;;;;;;5064801;28;20218;-83
2022/05/14 02:01:26;;;;;;;17.37;13.97;;;13.00;99.90;;;;;;5082866;28;20191;-83
2022/05/14 02:04:01;;;;;;;21.47;14.57;;;13.00;99.90;;;;;;5064708;28;20208;-83
2022/05/14 02:06:29;;;;;;;16.93;13.27;;;13.00;99.90;;;;;;5064312;28;20184;-83
2022/05/14 02:08:56;;;;;;;19.93;13.57;;;13.00;99.90;;;;;;5063912;28;20201;-83
2022/05/14 02:11:22;;;;;;;16.73;13.07;;;13.00;99.90;;;;;;5064204;28;20289;-83
2022/05/14 02:13:49;;;;;;;15.97;13.57;;;12.90;99.90;;;;;;5064371;28;20701;-82
2022/05/14 02:16:15;;;;;;;16.87;13.13;;;13.00;99.90;;;;;;5082579;28;20184;-83
2022/05/14 02:18:41;;;;;;;16.30;13.13;;;;;;;;;;5064669;28;20184;-83
2022/05/14 02:21:08;;;;;;;20.20;13.50;;;13.00;99.90;;;;;;5082578;28;20177;-83
2022/05/14 02:23:36;;;;;;;16.13;12.80;;;13.00;99.90;;;;;;5081835;28;20196;-83
2022/05/14 02:26:07;;;;;;;18.67;12.77;;;13.00;99.90;;;;;;5063733;28;20251;-83
2022/05/14 02:28:33;;;;;;;14.93;12.73;;;13.00;99.90;;;;;;5063885;28;20311;-82
2022/05/14 02:30:59;;;;;;;16.83;12.30;;;13.10;99.90;;;;;;5082684;28;20192;-82
2022/05/14 02:33:25;;;;;;;15.73;11.33;;;;;;;;;;5082048;28;20674;-82
2022/05/14 02:35:51;;;;;;;16.50;12.30;;;13.00;99.90;;;;;;5063810;28;20181;-82
2022/05/14 02:38:17;;;;;;;15.97;11.10;;;13.10;99.90;;;;;;5083037;28;20184;-82
2022/05/14 02:40:43;;;;;;;14.37;11.50;;;13.10;99.90;;;;;;5065336;28;20188;-82
2022/05/14 02:43:10;;;;;;;15.37;10.37;;;13.10;99.90;;;;;;5079427;28;20181;-82
2022/05/14 02:45:36;;;;;;;14.00;10.87;;;13.10;99.90;;;;;;5080399;28;20208;-82
2022/05/14 02:48:03;;;;;;;16.63;11.43;;;13.00;99.90;;;;;;5080580;28;20246;-82
2022/05/14 02:50:29;;;;;;;12.70;10.20;;;13.00;99.90;;;;;;5079718;28;20244;-82
2022/05/14 02:52:55;;;;;;;15.20;12.63;;;12.90;99.90;;;;;;5079979;28;20180;-82
2022/05/14 02:55:21;;;;;;;12.87;10.80;;;12.90;99.90;;;;;;5079078;28;20173;-82
2022/05/14 02:57:47;;;;;;;15.27;10.80;;;12.90;99.90;;;;;;5060792;28;20555;-83
2022/05/14 03:00:16;;;;;;;18.37;11.60;;;13.00;99.90;;;;;;5060083;28;20656;-82
2022/05/14 03:02:43;;;;;;;13.87;11.27;;;12.90;99.90;;;;;;5060086;28;20184;-82
2022/05/14 03:05:10;;;;;;;16.63;11.20;;;12.90;99.90;;;;;;5059214;28;20200;-82
2022/05/14 03:07:36;;;;;;;12.60;11.07;;;13.00;99.90;;;;;;5058771;28;20254;-82
2022/05/14 03:10:03;;;;;;;14.30;11.37;;;12.90;99.90;;;;;;5057081;28;20177;-83
2022/05/14 03:12:28;;;;;;;14.47;11.17;;;12.90;99.90;;;;;;5056633;28;20207;-83
2022/05/14 03:14:54;;;;;;;13.43;11.00;;;12.90;99.90;;;;;;5061880;28;20209;-82
2022/05/14 03:17:21;;;;;;;14.27;10.93;;;12.90;99.90;;;;;;5080552;28;20260;-82
2022/05/14 03:19:47;;;;;;;15.33;11.40;;;13.00;99.90;;;;;;5062005;28;20229;-82
2022/05/14 03:22:13;;;;;;;14.57;10.70;;;;;;;;;;5062363;28;20605;-82
2022/05/14 03:24:39;;;;;;;14.20;11.87;;;12.90;99.90;;;;;;5080173;28;20197;-83
2022/05/14 03:27:06;;;;;;;16.30;10.73;;;12.90;99.90;;;;;;5061839;28;20204;-82
2022/05/14 03:29:32;;;;;;;12.33;10.50;;;12.90;99.90;;;;;;5062639;28;20177;-82
2022/05/14 03:31:57;;;;;;;15.00;11.13;;;12.90;99.90;;;;;;5080444;28;20192;-82
2022/05/14 03:34:24;;;;;;;12.67;11.27;;;12.90;99.90;;;;;;5080653;28;20269;-82
2022/05/14 03:36:51;;;;;;;12.07;10.43;;;12.90;99.90;;;;;;5062286;28;20181;-82
2022/05/14 03:39:17;;;;;;;15.53;10.43;;;12.90;99.90;;;;;;5062117;28;20173;-82
2022/05/14 03:41:43;;;;;;;12.73;9.83;;;12.80;99.90;;;;;;5080954;28;20176;-82
2022/05/14 03:44:08;;;;;;;11.43;10.23;;;12.90;99.90;;;;;;5080873;28;20204;-82
2022/05/14 03:46:34;;;;;;;12.60;10.03;;;12.90;99.90;;;;;;5062381;28;20183;-82
2022/05/14 03:49:00;;;;;;;13.33;9.93;;;;;;;;;;5062633;28;20276;-83
2022/05/14 03:51:27;;;;;;;14.67;10.30;;;12.90;99.90;;;;;;5062015;28;20526;-82
2022/05/14 03:53:52;;;;;;;15.10;9.73;;;12.90;99.90;;;;;;5080770;28;20196;-82
2022/05/14 03:56:18;;;;;;;11.70;9.93;;;;;;;;;;5062771;28;20586;-82
2022/05/14 03:58:44;;;;;;;14.43;9.97;;;12.90;99.90;;;;;;5063240;28;20189;-82
2022/05/14 04:01:10;;;;;;;14.77;9.73;;;12.90;99.90;;;;;;5062344;28;20181;-82
2022/05/14 04:03:36;;;;;;;12.30;9.90;;;12.90;99.90;;;;;;5080475;28;20201;-82
2022/05/14 04:06:03;;;;;;;11.37;9.50;;;12.90;99.90;;;;;;5063378;28;20188;-82
2022/05/14 04:08:29;;;;;;;11.27;9.87;;;12.90;99.90;;;;;;5063141;28;20204;-83
2022/05/14 04:10:56;;;;;;;11.83;10.30;;;;;;;;;;5067397;28;20184;-82
2022/05/14 04:13:22;;;;;;;12.93;10.00;;;13.00;99.90;;;;;;5066717;28;20204;-82
2022/05/14 04:15:48;;;;;;;12.37;9.80;;;13.00;99.90;;;;;;5066696;28;20204;-82
2022/05/14 04:18:14;;;;;;;13.40;9.67;;;13.00;99.90;;;;;;5067169;28;20203;-82
2022/05/14 04:20:40;;;;;;;10.77;9.67;;;13.00;99.90;;;;;;5067174;28;20180;-82
2022/05/14 04:23:07;;;;;;;12.40;9.70;;;13.00;99.90;;;;;;5085636;28;20215;-83
2022/05/14 04:25:33;;;;;;;10.10;9.03;;;13.00;99.90;;;;;;5069298;28;20181;-83
2022/05/14 04:27:59;;;;;;;15.03;9.50;;;13.00;99.90;;;;;;5066490;28;20227;-82
2022/05/14 04:30:25;;;;;;;12.50;8.80;;;12.90;99.90;;;;;;5066180;28;20173;-82
2022/05/14 04:32:51;;;;;;;10.63;9.07;;;12.90;99.90;;;;;;5066183;28;20177;-83
2022/05/14 04:35:18;;;;;;;9.33;7.87;;;;;;;;;;5066169;28;20538;-82
2022/05/14 04:37:44;;;;;;;12.80;8.33;;;;;;;;;;5084983;28;20188;-83
2022/05/14 04:40:10;;;;;;;9.57;8.43;;;13.10;99.90;;;;;;5066188;28;20212;-82
2022/05/14 04:42:38;;;;;;;9.53;8.33;;;13.20;99.90;;;;;;5066111;28;20275;-82
2022/05/14 04:45:05;;;;;;;10.17;8.67;;;13.30;99.90;;;;;;5084447;28;20192;-82
2022/05/14 04:47:31;;;;;;;9.40;8.50;;;13.30;99.90;;;;;;5066086;28;20204;-82
2022/05/14 04:49:57;;;;;;;8.47;7.67;;;;;;;;;;5084690;28;20161;-83
2022/05/14 04:52:23;;;;;;;12.23;9.00;;;13.40;99.90;;;;;;5066067;28;20271;-83
2022/05/14 04:54:49;;;;;;;10.00;8.17;;;;;;;;;;5083636;28;20217;-83
2022/05/14 04:57:15;;;;;;;9.33;7.80;;;;;;;;;;5082852;28;20177;-83
2022/05/14 04:59:40;;;;;;;9.23;8.33;;;13.50;99.90;;;;;;5083115;28;20199;-83
2022/05/14 05:04:51;;;;;;;12.23;8.00;;;13.50;99.90;;;;;;5082468;28;20231;-82
2022/05/14 05:07:17;;;;;;;12.20;8.60;;;13.50;99.90;;;;;;5081702;28;20196;-83
2022/05/14 05:09:42;;;;;;;8.83;7.47;;;13.60;99.90;;;;;;5063999;28;20177;-82
2022/05/14 05:12:09;;;;;;;12.00;8.07;;;13.60;99.90;;;;;;5062794;28;20231;-82
2022/05/14 05:14:34;;;;;;;11.27;7.17;;;13.60;99.90;;;;;;5080243;28;20254;-83
2022/05/14 05:17:00;;;;;;;10.80;6.87;;;13.50;99.90;;;;;;5079900;28;20188;-83
2022/05/14 05:19:26;;;;;;;9.33;6.93;;;;;;;;;;5078816;28;20183;-81
2022/05/14 05:21:52;;;;;;;12.10;7.60;;;13.60;99.90;;;;;;5060878;28;20653;-82
2022/05/14 05:24:17;;;;;;;10.07;6.93;;;13.70;99.90;;;;;;5077197;28;20204;-84
2022/05/14 05:26:43;;;;;;;7.37;6.57;;;;;;;;;;5059777;28;20181;-83
2022/05/14 05:29:09;;;;;;;10.03;6.10;;;;;;;;;;5062690;28;20200;-83
2022/05/14 05:31:35;;;;;;;8.83;5.67;;;13.50;99.90;;;;;;5081537;28;20176;-82
2022/05/14 05:34:02;;;;;;;9.90;6.07;;;13.60;99.90;;;;;;5081344;28;20711;-83
2022/05/14 05:36:28;;;;;;;10.03;5.73;;;13.60;99.90;;;;;;5081453;28;20191;-82
2022/05/14 05:38:54;;;;;;;11.07;5.97;;;13.50;99.90;;;;;;5063126;28;20181;-83
2022/05/14 05:41:21;;;;;;;7.93;5.80;;;13.60;99.90;;;;;;5063228;28;20180;-83
2022/05/14 05:43:47;;;;;;;7.03;5.40;;;13.70;99.90;;;;;;5062372;28;20197;-83
2022/05/14 05:46:14;;;;;;;10.20;5.17;;;13.70;99.90;;;;;;5080665;28;20176;-83
2022/05/14 05:48:41;;;;;;;6.87;5.03;;;13.80;99.90;;;;;;5062878;28;20290;-83
2022/05/14 05:51:07;;;;;;;8.13;5.67;;;13.80;99.90;;;;;;5063022;28;20215;-83
2022/05/14 05:59:03;;;;;;;9.03;4.07;;;14.10;99.90;;;;;;5081260;28;20175;-82
2022/05/14 06:01:29;;;;;;;4.63;3.50;;;14.20;99.90;;;;;;5080348;28;20708;-82
2022/05/14 06:03:54;;;;;;;7.23;4.10;;;14.30;99.90;;;;;;5063125;28;20200;-82
2022/05/14 06:06:20;;;;;;;5.13;3.40;;;;;;;;;;5081489;28;20172;-83
2022/05/14 06:08:50;;;;;;;4.77;3.60;;;14.40;99.90;;;;;;5063901;28;20201;-83
2022/05/14 06:11:17;;;;;;;8.60;4.27;;;14.40;99.90;;;;;;5062818;28;20173;-83
2022/05/14 06:13:43;;;;;;;8.57;4.50;;;14.60;99.90;;;;;;5064975;28;20213;-83
2022/05/14 06:16:10;;;;;;;8.60;5.90;;;14.60;99.90;;;;;;5078760;28;20179;-84
2022/05/14 06:18:37;;;;;;;9.43;5.70;;;14.60;99.90;;;;;;5079309;28;20540;-82
2022/05/14 06:21:04;;;;;;;6.07;4.03;;;14.70;99.90;;;;;;5080100;28;20203;-83
2022/05/14 06:23:30;;;;;;;5.57;4.63;;;14.80;99.90;;;;;;5061342;28;20323;-81
2022/05/14 06:25:56;;;;;;;5.90;3.97;;;14.80;99.90;;;;;;5080409;28;20196;-82
2022/05/14 06:28:22;;;;;;;9.53;4.10;;;;;;;;;;5063889;28;20584;-83
2022/05/14 06:30:48;;;;;;;8.30;3.40;;;15.00;99.90;;;;;;5062963;28;20180;-86
2022/05/14 06:33:17;;;;;;;5.03;3.13;;;15.30;99.90;;;;;;5063649;28;20189;-86
2022/05/14 06:35:44;;;;;;;6.83;3.40;;;15.30;99.90;;;;;;5082369;28;20169;-86
2022/05/14 06:38:10;;;;;;;9.80;4.20;;;15.40;99.90;;;;;;5068895;28;20177;-86
2022/05/14 06:40:37;;;;;;;4.30;3.07;;;15.50;99.90;;;;;;5069417;28;20173;-86
2022/05/14 06:43:03;;;;;;;5.93;3.50;;;15.60;99.90;;;;;;5062766;28;20208;-86
2022/05/14 06:45:30;;;;;;;5.30;3.63;;;15.60;99.90;;;;;;5061978;28;20184;-84
2022/05/14 06:47:56;;;;;;;5.17;3.30;;;15.70;99.90;;;;;;5060078;28;20197;-83
2022/05/14 06:50:22;;;;;;;4.97;3.30;;;15.60;99.90;;;;;;5079530;28;20645;-82
2022/05/14 06:52:50;;;;;;;4.80;2.80;;;15.80;99.90;;;;;;5078614;28;20252;-84
2022/05/14 06:55:19;;;;;;;7.20;3.00;;;15.70;99.90;;;;;;5078677;28;20196;-83
2022/05/14 06:57:46;;;;;;;5.33;2.73;;;16.00;99.90;;;;;;5062048;28;20238;-84
2022/05/14 07:00:12;;;;;;;5.07;2.33;;;16.20;99.90;;;;;;5060099;28;20212;-82
2022/05/14 07:02:39;;;;;;;4.67;2.37;;;16.30;99.90;;;;;;5060464;28;20192;-82
2022/05/14 07:07:51;;;;;;;5.67;2.40;;;16.60;99.90;;;;;;5078038;28;20661;-84
2022/05/14 07:10:17;;;;;;;5.80;2.17;;;16.60;99.90;;;;;;5059724;28;20256;-84
2022/05/14 07:12:43;;;;;;;6.23;2.07;;;16.70;99.90;;;;;;5059958;28;20203;-84
2022/05/14 07:15:11;;;;;;;5.27;2.30;;;16.80;99.90;;;;;;5059921;28;20197;-84
2022/05/14 07:17:37;;;;;;;5.27;2.27;;;17.00;99.90;;;;;;5059002;28;20179;-84
2022/05/14 07:20:07;;;;;;;4.73;2.10;;;17.10;99.90;;;;;;5058906;28;20205;-84
2022/05/14 07:22:32;;;;;;;4.63;2.27;;;17.10;99.90;;;;;;5077403;28;20185;-84
2022/05/14 07:24:58;;;;;;;4.20;2.20;;;17.20;99.90;;;;;;5078669;28;20203;-84
2022/05/14 07:27:24;;;;;;;4.87;2.20;;;17.30;99.90;;;;;;5062598;28;20200;-84
2022/05/14 07:29:50;;;;;;;3.63;2.50;;;17.30;99.90;;;;;;5061633;28;20607;-80
2022/05/14 07:32:18;;;;;;;3.93;2.33;;;17.30;99.90;;;;;;5081083;28;20206;-83
2022/05/14 07:34:44;;;;;;;4.73;1.93;;;17.30;99.90;;;;;;5063411;28;20203;-84
2022/05/14 07:37:24;;;;;;;3.60;2.17;;;17.40;99.90;;;;;;5062388;28;20244;-82
2022/05/14 07:40:07;;;;;;;2.67;1.70;;;17.30;99.90;;;;;;5062164;28;20245;-83
2022/05/14 07:42:45;;;;;;;10.07;1.93;;;17.50;99.90;;;;;;5080015;28;20174;-81
2022/05/14 07:45:17;;;;;;;5.47;2.00;;;17.60;99.90;;;;;;5081841;28;20199;-80
2022/05/14 07:47:43;;;;;;;7.33;2.57;;;17.70;99.90;;;;;;5082345;28;20204;-81
2022/05/14 07:50:10;;;;;;;1.57;1.30;;;17.70;99.90;;;;;;5081789;28;20177;-82
2022/05/14 07:52:36;;;;;;;3.47;1.83;;;17.70;99.90;;;;;;5082265;28;20298;-83
2022/05/14 07:55:03;;;;;;;3.50;1.80;;;17.80;99.90;;;;;;5082387;28;20567;-84
2022/05/14 07:57:29;;;;;;;7.03;2.00;;;17.80;99.90;;;;;;5067335;28;20212;-84
2022/05/14 07:59:54;;;;;;;4.13;1.50;;;17.90;99.90;;;;;;5077528;28;20188;-84
2022/05/14 08:02:31;;;;;;;5.93;1.70;;;18.10;99.90;;;;;;5059416;28;20192;-83
2022/05/14 08:04:58;;;;;;;4.90;1.63;;;18.40;99.90;;;;;;5059132;28;20237;-84
2022/05/14 08:07:24;;;;;;;2.07;1.80;;;18.70;99.90;;;;;;5078916;28;20256;-82
2022/05/14 08:09:49;;;;;;;1.70;1.40;;;19.10;99.90;;;;;;5059831;28;20170;-86
2022/05/14 08:12:15;;;;;;;4.60;1.80;;;19.80;99.90;;;;;;5059904;28;20200;-83
2022/05/14 08:14:41;;;;;;;3.30;1.37;;;20.90;99.90;;;;;;5079542;28;20214;-83
2022/05/14 08:17:08;;;;;;;4.83;1.67;;;21.20;99.90;;;;;;5062170;28;20638;-84
2022/05/14 08:19:34;;;;;;;2.43;1.30;;;21.70;99.90;;;;;;5080593;28;20638;-83
2022/05/14 08:24:44;;;;;;;2.57;1.10;;;22.40;94.90;;;;;;5080607;28;20200;-84
2022/05/14 08:27:11;;;;;;;1.70;1.27;;;22.70;96.40;;;;;;5081305;28;20201;-84
2022/05/14 08:29:37;;;;;;;6.33;2.00;;;23.00;94.20;;;;;;5080234;28;20274;-83
2022/05/14 08:32:04;;;;;;;2.60;1.63;;;22.90;96.60;;;;;;5061834;28;20184;-82
2022/05/14 08:34:31;;;;;;;3.70;2.00;;;23.00;97.70;;;;;;5060659;28;20193;-79
2022/05/14 08:36:57;;;;;;;3.87;1.80;;;22.90;92.00;;;;;;5079454;28;20188;-80
2022/05/14 08:39:23;;;;;;;3.33;1.87;;;22.40;93.00;;;;;;5059877;28;20192;-80
2022/05/14 08:41:52;;;;;;;3.37;1.97;;;22.30;96.10;;;;;;5078104;28;20176;-81
2022/05/14 08:44:22;;;;;;;3.20;1.40;;;22.40;95.60;;;;;;5079172;28;20216;-80
2022/05/14 08:46:56;;;;;;;2.27;1.43;;;22.40;94.60;;;;;;5078734;28;20248;-81
2022/05/14 08:49:26;;;;;;;2.10;1.40;;;22.40;94.90;;;;;;5078366;28;20164;-80
2022/05/14 08:51:52;;;;;;;3.13;1.53;;;22.60;95.00;;;;;;5078132;28;20165;-81
2022/05/14 08:54:18;;;;;;;5.97;1.70;;;22.80;95.70;;;;;;5076439;28;20203;-82
2022/05/14 08:57:00;;;;;;;3.03;1.40;;;23.00;93.10;;;;;;5079658;28;20178;-81
2022/05/14 08:59:41;;;;;;;3.70;1.93;;;23.40;93.30;;;;;;5061947;28;20168;-82
2022/05/14 09:02:20;;;;;;;5.00;1.80;;;23.90;92.50;;;;;;5062458;28;20167;-81
2022/05/14 09:04:47;;;;;;;4.20;1.70;;;24.10;91.50;;;;;;5062069;28;20197;-83
2022/05/14 09:07:13;;;;;;;4.70;2.27;;;24.10;90.30;;;;;;5062024;28;20208;-82
2022/05/14 09:09:56;;;;;;;6.70;2.00;;;24.20;88.90;;;;;;5081999;28;20585;-81
2022/05/14 09:12:29;;;;;;;1.93;1.47;;;24.00;90.90;;;;;;5080790;28;20172;-82
2022/05/14 09:15:05;;;;;;;4.00;1.53;;;24.10;90.70;;;;;;5061083;28;20239;-82
2022/05/14 09:17:31;;;;;;;3.17;2.03;;;24.30;88.40;;;;;;5060740;28;20172;-78
2022/05/14 09:19:59;;;;;;;7.40;1.90;;;24.40;95.90;;;;;;5076912;28;20180;-77
2022/05/14 09:22:52;;;;;;;4.47;1.67;;;24.00;92.50;;;;;;5076988;28;20178;-78
2022/05/14 09:25:18;;;;;;;3.37;1.87;;;24.10;90.00;;;;;;5076684;28;20200;-77
2022/05/14 09:27:56;;;;;;;2.80;1.53;;;24.00;91.80;;;;;;5077012;28;20788;-77
2022/05/14 09:30:30;;;;;;;3.80;2.03;;;24.10;88.10;;;;;;5076447;28;20233;-77
2022/05/14 09:32:56;;;;;;;6.17;2.30;;;24.00;92.30;;;;;;5076725;28;20236;-78
2022/05/14 09:35:25;;;;;;;3.40;1.73;;;23.90;91.20;;;;;;5076498;28;20178;-77
2022/05/14 09:37:57;;;;;;;6.53;2.20;;;23.70;91.00;;;;;;5078937;28;20183;-81
2022/05/14 09:40:26;;;;;;;3.00;2.13;;;23.60;88.40;;;;;;5078671;28;20646;-81
2022/05/14 09:43:05;;;;;;;4.57;2.50;;;23.80;95.70;;;;;;5061098;28;20181;-82
2022/05/14 09:45:36;;;;;;;3.10;2.00;;;24.00;91.50;;;;;;5078889;28;20177;-81
2022/05/14 09:48:19;;;;;;;4.07;2.40;;;24.00;93.00;;;;;;5060402;28;20195;-82
2022/05/14 09:50:51;;;;;;;4.27;2.30;;;24.10;92.80;;;;;;5078806;28;20178;-81
2022/05/14 09:53:38;;;;;;;4.57;1.90;;;24.00;90.70;;;;;;5060854;28;20193;-81
2022/05/14 09:56:14;;;;;;;4.37;2.20;;;24.00;92.30;;;;;;5061351;28;20163;-81
2022/05/14 09:58:49;;;;;;;4.47;2.00;;;24.30;95.60;;;;;;5078809;28;20187;-81
2022/05/14 10:01:20;;;;;;;3.97;2.40;;;24.50;88.30;;;;;;5060124;28;20612;-81
2022/05/14 10:04:01;;;;;;;9.20;2.13;;;24.60;93.50;;;;;;5060253;28;20222;-81
2022/05/14 10:06:47;;;;;;;6.10;2.57;;;24.70;95.80;;;;;;5059782;28;20165;-81
2022/05/14 10:09:20;;;;;;;4.33;2.30;;;24.80;95.60;;;;;;5079232;28;20191;-81
2022/05/14 10:12:06;;;;;;;3.77;1.93;;;24.80;90.80;;;;;;5078895;28;20228;-82
2022/05/14 10:14:58;;;;;;;3.60;2.40;;;24.90;92.70;;;;;;5060407;28;20265;-82
2022/05/14 10:17:50;;;;;;;3.20;2.17;;;25.10;91.60;;;;;;5060069;28;20233;-82
2022/05/14 10:20:24;;;;;;;4.13;2.00;;;24.60;84.70;;;;;;5078586;28;20218;-83
2022/05/14 10:29:12;;;;;;;4.33;2.10;;;23.90;92.50;;;;;;5077402;28;20235;-81
2022/05/14 10:32:02;;;;;;;4.03;2.17;;;24.40;90.50;;;;;;5059806;28;20565;-81
2022/05/14 10:34:47;;;;;;;4.43;2.20;;;24.90;91.30;;;;;;5078093;28;20571;-81
2022/05/14 10:37:27;;;;;;;2.13;1.90;;;24.90;89.50;;;;;;5077698;28;20153;-83
2022/05/14 10:40:01;;;;;;;3.37;2.37;;;24.90;93.50;;;;;;5059140;28;20169;-82
2022/05/14 10:42:52;;;;;;;4.47;2.40;;;25.10;86.10;;;;;;5059505;28;20572;-83
2022/05/14 10:45:22;;;;;;;8.10;2.20;;;25.20;88.20;;;;;;5078438;28;20188;-81
2022/05/14 10:48:14;;;;;;;4.23;2.30;;;25.30;93.20;;;;;;5078462;28;20185;-84
2022/05/14 10:50:40;;;;;;;6.90;2.03;;;25.80;93.50;;;;;;5085782;28;20195;-84
2022/05/14 10:53:08;;;;;;;3.50;2.13;;;24.00;92.50;;;;;;5078357;28;20173;-83
2022/05/14 10:55:46;;;;;;;4.17;2.30;;;23.80;90.20;;;;;;5077678;28;20165;-82
2022/05/14 10:58:41;;;;;;;5.23;2.10;;;23.80;91.00;;;;;;5060356;28;20588;-82
2022/05/14 11:01:07;;;;;;;5.47;2.10;;;24.50;90.60;;;;;;5060171;28;20179;-81
2022/05/14 11:03:36;;;;;;;5.77;2.40;;;25.00;92.20;;;;;;5059203;28;20651;-81
2022/05/14 11:06:01;;;;;;;5.63;2.50;;;25.50;90.90;;;;;;5078185;28;20173;-82
2022/05/14 11:08:31;;;;;;;6.83;2.27;;;26.00;93.20;;;;;;5077767;28;20206;-82
2022/05/14 11:11:13;;;;;;;5.20;2.33;;;26.40;91.90;;;;;;5058912;28;20199;-85
2022/05/14 11:13:38;;;;;;;5.00;2.50;;;26.70;90.60;;;;;;5078253;28;20232;-81
2022/05/14 11:16:10;;;;;;;4.20;2.30;;;26.90;87.20;;;;;;5077991;28;20511;-83
2022/05/14 11:18:52;;;;;;;7.33;2.67;;;26.80;82.90;;;;;;5060844;28;20210;-83
2022/05/14 11:21:22;;;;;;;4.53;2.50;;;26.50;87.30;;;;;;5079273;28;20180;-81
2022/05/14 11:23:59;;;;;;;4.00;2.23;;;26.40;89.10;;;;;;5078769;28;20185;-83
2022/05/14 11:26:26;;;;;;;3.97;2.60;;;26.50;83.80;;;;;;5080580;28;20161;-83
2022/05/14 11:29:12;;;;;;;4.97;2.23;;;26.90;90.80;;;;;;5081817;28;20196;-83
2022/05/14 11:31:48;;;;;;;4.23;2.57;;;26.90;84.10;;;;;;5080593;28;20165;-83
2022/05/14 11:34:18;;;;;;;6.07;3.53;;;27.10;89.50;;;;;;5080148;28;20196;-84
2022/05/14 11:36:50;;;;;;;6.57;2.90;;;26.20;85.50;;;;;;5062208;28;20234;-84
2022/05/14 11:39:25;;;;;;;4.37;3.00;;;25.90;88.10;;;;;;5061281;28;20165;-82
2022/05/14 11:42:23;;;;;;;3.53;2.63;;;26.30;86.40;;;;;;5060943;28;20210;-83
2022/05/14 11:45:28;;;;;;;5.27;2.50;;;26.30;80.90;;;;;;5078285;28;20585;-83
2022/05/14 11:48:08;;;;;;;3.97;1.93;;;26.70;81.90;;;;;;5038845;28;20202;-82
2022/05/14 11:50:47;;;;;;;6.77;2.23;;;27.60;79.10;;;;;;5057840;28;20184;-83
2022/05/14 11:53:18;;;;;;;4.77;2.33;;;28.40;82.90;;;;;;5061671;28;20256;-81
2022/05/14 11:55:55;;;;;;;3.17;2.27;;;28.70;87.20;;;;;;5060498;28;20194;-85
2022/05/14 11:58:39;;;;;;;3.70;2.17;;;28.60;88.60;;;;;;5061335;28;20196;-83
2022/05/14 12:01:13;;;;;;;5.03;2.50;;;28.60;76.50;;;;;;5062165;28;20184;-82
2022/05/14 12:03:46;;;;;;;5.00;2.10;;;28.30;75.50;;;;;;5061506;28;20201;-82
2022/05/14 12:06:26;;;;;;;2.90;2.23;;;28.40;79.40;;;;;;5059628;28;20170;-82
2022/05/14 12:08:55;;;;;;;5.77;2.90;;;28.90;80.50;;;;;;5076708;28;20196;-83
2022/05/14 12:11:40;;;;;;;4.57;2.43;;;29.10;82.00;;;;;;5075603;28;20541;-78
2022/05/14 12:14:14;;;;;;;7.10;3.03;;;29.40;79.20;;;;;;5078070;28;20623;-78
2022/05/14 12:16:51;;;;;;;5.43;2.80;;;29.10;80.10;;;;;;5059356;28;20204;-78
2022/05/14 12:19:23;;;;;;;5.77;2.50;;;29.10;70.90;;;;;;5077875;28;20243;-78
2022/05/14 12:21:56;;;;;;;7.23;2.97;;;29.80;75.90;;;;;;5077998;28;20524;-79
2022/05/14 12:24:25;;;;;;;5.13;2.57;;;30.40;75.60;;;;;;5077428;28;20234;-79
2022/05/14 12:26:51;;;;;;;6.20;2.47;;;30.20;74.10;;;;;;5076120;28;20537;-78
2022/05/14 12:29:38;;;;;;;5.93;3.00;;;30.40;76.10;;;;;;5075847;28;20194;-78
2022/05/14 12:34:54;;;;;;;2.90;2.50;;;30.90;71.70;;;;;;5078748;28;20268;-78
2022/05/14 12:37:20;;;;;;;5.87;2.50;;;30.40;69.50;;;;;;5078689;28;20175;-78
2022/05/14 12:39:48;;;;;;;5.20;2.53;;;30.20;76.70;;;;;;5080400;28;20179;-81
2022/05/14 12:42:14;;;;;;;6.40;2.43;;;30.10;68.80;;;;;;5062203;28;20173;-80
2022/05/14 12:44:44;;;;;;;5.17;3.00;;;29.70;66.20;;;;;;5079930;28;20200;-79
2022/05/14 12:47:10;;;;;;;8.10;3.03;;;29.50;63.20;;;;;;5061333;28;20224;-80
2022/05/14 12:49:37;;;;;;;4.93;2.60;;;29.40;68.70;;;;;;5080695;28;20259;-80
2022/05/14 12:52:12;;;;;;;4.23;2.73;;;29.30;77.00;;;;;;5061979;28;20279;-80
2022/05/14 12:54:48;;;;;;;5.33;2.50;;;29.90;72.90;;;;;;5079005;28;20198;-80
2022/05/14 12:57:14;;;;;;;5.20;2.50;;;29.50;73.10;;;;;;5061909;28;20164;-80
2022/05/14 12:59:40;;;;;;;6.00;3.00;;;29.50;69.40;;;;;;5062299;28;20183;-80
2022/05/14 13:02:33;;;;;;;6.10;2.70;;;29.30;72.20;;;;;;5081540;28;20183;-80
2022/05/14 13:05:28;;;;;;;3.60;2.50;;;29.50;70.00;;;;;;5075488;28;20207;-80
2022/05/14 13:08:02;;;;;;;4.10;2.13;;;30.20;71.10;;;;;;5067541;28;20303;-79
2022/05/14 13:10:30;;;;;;;2.90;2.60;;;30.30;66.90;;;;;;5061450;28;20164;-80
2022/05/14 13:13:02;;;;;;;2.57;2.00;;;29.90;67.60;;;;;;5079083;28;20547;-81
2022/05/14 13:15:40;;;;;;;4.77;2.70;;;29.90;67.80;;;;;;5064143;28;20216;-80
2022/05/14 13:18:20;;;;;;;4.00;2.20;;;29.60;73.80;;;;;;5080351;28;20156;-79
2022/05/14 13:20:47;;;;;;;4.53;2.37;;;29.60;65.60;;;;;;5082901;28;20164;-83
2022/05/14 13:23:21;;;;;;;3.77;2.37;;;30.30;72.10;;;;;;5063394;28;20206;-82
2022/05/14 13:25:57;;;;;;;3.83;2.43;;;30.40;72.60;;;;;;5080601;28;20253;-83